Time;durP1;ratioP1;P1;durP2;ratioP2;P2;SDS_P1;SDS_P2;PMS_P1;PMS_P2;Temp;Humidity;BMP_temperature;BMP_pressure;BME280_temperature;BME280_humidity;BME280_pressure;Samples;Min_cycle;Max_cycle;Signal;HPM_P1;HPM_P2
2021/01/02 00:01:57;;;;;;;34.30;24.30;;;;;;;4.66;100.00;100389.16;5010189;28;20228;-73
2021/01/02 00:04:34;;;;;;;35.33;23.90;;;;;;;4.58;100.00;100399.50;4995986;28;20177;-74
2021/01/02 00:07:22;;;;;;;39.43;25.13;;;;;;;4.69;100.00;100394.06;5010083;28;20263;-74
2021/01/02 00:09:51;;;;;;;35.60;23.87;;;;;;;4.64;100.00;100391.28;5027145;28;20278;-73
2021/01/02 00:12:26;;;;;;;38.20;24.03;;;;;;;4.55;100.00;100399.16;5009648;28;20243;-73
2021/01/02 00:15:16;;;;;;;36.20;24.13;;;;;;;4.58;100.00;100386.06;5009967;28;20250;-73
2021/01/02 00:17:50;;;;;;;48.23;29.90;;;;;;;4.55;100.00;100389.22;4996397;28;20227;-73
2021/01/02 00:20:34;;;;;;;61.27;37.30;;;;;;;4.72;100.00;100387.38;5010040;28;20232;-73
2021/01/02 00:22:59;;;;;;;46.23;29.20;;;;;;;4.64;100.00;100406.59;5026297;28;20213;-75
2021/01/02 00:25:30;;;;;;;42.10;26.57;;;;;;;4.76;100.00;100399.28;4976674;28;20172;-73
2021/01/02 00:28:16;;;;;;;36.63;25.87;;;;;;;4.65;100.00;100405.53;5010000;28;20185;-74
2021/01/02 00:30:59;;;;;;;36.37;23.70;;;;;;;4.59;100.00;100403.81;5026293;28;20259;-73
2021/01/02 00:34:02;;;;;;;34.20;24.83;;;;;;;4.56;100.00;100396.22;5028455;28;20188;-74
2021/01/02 00:36:46;;;;;;;36.37;23.43;;;;;;;4.57;100.00;100403.22;5029601;28;20800;-74
2021/01/02 00:39:18;;;;;;;35.23;24.00;;;;;;;4.69;100.00;100399.44;5013857;28;20185;-74
2021/01/02 00:41:43;;;;;;;33.93;24.77;;;;;;;4.55;100.00;100407.22;5013527;28;20232;-73
2021/01/02 00:44:13;;;;;;;36.43;24.57;;;;;;;4.66;100.00;100405.28;5013730;28;20189;-74
2021/01/02 00:46:41;;;;;;;42.27;25.67;;;;;;;4.66;100.00;100409.84;5029237;28;20217;-74
2021/01/02 00:49:09;;;;;;;39.43;24.60;;;;;;;4.55;100.00;100399.97;5014445;28;20568;-74
2021/01/02 00:51:41;;;;;;;38.47;25.40;;;;;;;4.56;100.00;100403.47;5013346;28;20253;-73
2021/01/02 00:54:24;;;;;;;35.53;25.50;;;;;;;4.47;100.00;100405.72;5008098;28;20348;-73
2021/01/02 00:57:03;;;;;;;39.13;24.10;;;;;;;4.63;100.00;100410.31;5028000;28;20223;-74
2021/01/02 00:59:51;;;;;;;38.23;25.03;;;;;;;4.65;100.00;100413.59;5002483;28;20287;-73
2021/01/02 01:03:01;;;;;;;42.53;27.00;;;;;;;4.62;100.00;100414.09;5001269;28;20303;-73
2021/01/02 01:05:30;;;;;;;36.07;25.27;;;;;;;4.45;100.00;100407.84;5006781;28;20259;-73
2021/01/02 01:07:55;;;;;;;38.87;25.33;;;;;;;4.42;100.00;100412.88;5000810;28;20184;-73
2021/01/02 01:10:28;;;;;;;36.13;24.67;;;;;;;4.40;100.00;100405.03;5016713;28;20211;-74
2021/01/02 01:13:10;;;;;;;37.43;25.13;;;;;;;4.41;100.00;100412.03;4997375;28;20181;-73
2021/01/02 01:15:35;;;;;;;35.57;25.20;;;;;;;4.43;100.00;100418.03;4978447;28;20248;-73
2021/01/02 01:18:13;;;;;;;38.20;25.23;;;;;;;4.42;100.00;100415.56;4993602;28;20190;-74
2021/01/02 01:20:58;;;;;;;38.83;25.03;;;;;;;4.38;100.00;100412.53;4978304;28;20611;-73
2021/01/02 01:23:35;;;;;;;37.13;25.10;;;;;;;4.41;100.00;100417.41;5004535;28;20177;-73
2021/01/02 01:26:16;;;;;;;35.90;24.10;;;;;;;4.38;100.00;100420.59;5036125;28;20224;-73
2021/01/02 01:28:45;;;;;;;35.83;24.23;;;;;;;4.34;100.00;100422.13;5016993;28;20195;-73
2021/01/02 01:31:11;;;;;;;33.90;23.37;;;;;;;4.33;100.00;100423.19;4999214;28;20228;-73
2021/01/02 01:33:38;;;;;;;36.73;24.40;;;;;;;4.49;100.00;100425.13;5000229;28;20569;-73
2021/01/02 01:36:04;;;;;;;34.43;23.40;;;;;;;4.45;100.00;100421.28;4999421;28;20232;-74
2021/01/02 01:38:34;;;;;;;34.57;24.03;;;;;;;4.49;100.00;100427.00;5032626;28;20183;-73
2021/01/02 01:41:13;;;;;;;38.57;25.00;;;;;;;4.56;100.00;100428.50;5015579;28;20646;-73
2021/01/02 01:44:13;;;;;;;39.20;25.10;;;;;;;4.51;100.00;100433.78;4999752;28;20203;-73
2021/01/02 01:46:52;;;;;;;39.37;25.37;;;;;;;4.62;100.00;100439.09;5032704;28;20274;-74
2021/01/02 01:49:29;;;;;;;36.67;24.00;;;;;;;4.55;100.00;100439.50;5032728;28;20181;-74
2021/01/02 01:52:21;;;;;;;35.40;23.90;;;;;;;4.52;100.00;100443.44;5048320;28;20220;-73
2021/01/02 01:55:08;;;;;;;33.63;23.17;;;;;;;4.44;100.00;100443.03;5000898;28;20192;-74
2021/01/02 01:57:43;;;;;;;35.27;23.70;;;;;;;4.46;100.00;100447.09;4992546;28;20240;-73
2021/01/02 02:00:09;;;;;;;35.17;23.30;;;;;;;4.57;100.00;100440.88;4993431;28;20205;-73
2021/01/02 02:02:47;;;;;;;35.07;23.63;;;;;;;4.53;100.00;100437.03;5009354;28;20190;-73
2021/01/02 02:05:13;;;;;;;37.00;23.07;;;;;;;4.52;100.00;100450.72;5008023;28;20181;-73
2021/01/02 02:07:45;;;;;;;33.83;22.60;;;;;;;4.62;100.00;100452.53;5009458;28;20714;-73
2021/01/02 02:10:23;;;;;;;34.30;23.13;;;;;;;4.66;100.00;100447.50;4991832;28;20703;-73
2021/01/02 02:13:02;;;;;;;33.03;23.27;;;;;;;4.49;100.00;100440.44;4978019;28;20197;-73
2021/01/02 02:15:28;;;;;;;34.53;23.03;;;;;;;4.43;100.00;100442.22;5007634;28;20232;-73
2021/01/02 02:18:09;;;;;;;31.57;22.90;;;;;;;4.57;100.00;100448.94;4992767;28;20837;-73
2021/01/02 02:20:35;;;;;;;36.20;23.33;;;;;;;4.54;100.00;100444.03;4993094;28;20229;-73
2021/01/02 02:23:06;;;;;;;34.03;22.37;;;;;;;4.49;100.00;100441.25;4992305;28;20193;-73
2021/01/02 02:25:44;;;;;;;33.27;22.70;;;;;;;4.56;100.00;100441.94;4994295;28;20267;-73
2021/01/02 02:28:12;;;;;;;33.23;22.77;;;;;;;4.66;100.00;100442.94;4998600;28;20240;-73
2021/01/02 02:30:37;;;;;;;34.77;23.03;;;;;;;4.59;100.00;100446.81;4997667;28;20248;-73
2021/01/02 02:33:06;;;;;;;36.63;22.83;;;;;;;4.60;100.00;100448.47;5030589;28;20188;-73
2021/01/02 02:35:32;;;;;;;33.60;23.37;;;;;;;4.56;100.00;100444.63;5012929;28;20292;-74
2021/01/02 02:38:00;;;;;;;33.60;21.93;;;;;;;4.61;100.00;100444.72;5014039;28;20235;-74
2021/01/02 02:40:32;;;;;;;31.90;22.07;;;;;;;4.53;100.00;100447.78;5013904;28;20336;-73
2021/01/02 02:43:01;;;;;;;33.07;23.37;;;;;;;4.58;100.00;100447.91;5014029;28;20192;-74
2021/01/02 02:45:32;;;;;;;29.20;21.17;;;;;;;4.48;100.00;100455.75;5029439;28;20224;-74
2021/01/02 02:47:59;;;;;;;32.60;22.47;;;;;;;4.49;100.00;100452.00;5013491;28;20266;-74
2021/01/02 02:50:27;;;;;;;32.50;22.70;;;;;;;4.54;100.00;100444.03;5010986;28;20235;-74
2021/01/02 02:53:09;;;;;;;33.47;23.43;;;;;;;4.60;100.00;100448.47;5009576;28;20651;-73
2021/01/02 02:55:37;;;;;;;107.77;52.00;;;;;;;4.61;100.00;100450.09;4996015;28;20228;-73
2021/01/02 02:58:03;;;;;;;111.30;57.67;;;;;;;4.61;100.00;100460.84;5011897;28;20186;-73
2021/01/02 03:00:29;;;;;;;48.50;32.60;;;;;;;4.75;100.00;100451.47;4994354;28;20225;-73
2021/01/02 03:02:57;;;;;;;32.37;24.23;;;;;;;4.62;100.00;100451.75;5012063;28;20234;-73
2021/01/02 03:05:25;;;;;;;35.43;25.37;;;;;;;4.65;100.00;100454.78;5010014;28;20280;-74
2021/01/02 03:07:50;;;;;;;31.83;22.13;;;;;;;4.57;100.00;100448.13;5011041;28;20218;-74
2021/01/02 03:10:18;;;;;;;35.67;24.27;;;;;;;4.54;100.00;100457.47;5010706;28;20207;-74
2021/01/02 03:12:50;;;;;;;33.60;23.50;;;;;;;4.49;100.00;100457.38;4994942;28;20548;-74
2021/01/02 03:15:26;;;;;;;32.87;22.87;;;;;;;4.48;100.00;100455.75;4993651;28;20212;-74
2021/01/02 03:17:54;;;;;;;33.07;23.53;;;;;;;4.30;100.00;100463.16;4995553;28;20180;-73
2021/01/02 03:20:20;;;;;;;34.03;23.67;;;;;;;4.35;100.00;100456.00;5010563;28;20236;-74
2021/01/02 03:22:51;;;;;;;34.93;24.13;;;;;;;4.42;100.00;100461.25;5010754;28;20264;-74
2021/01/02 03:25:17;;;;;;;32.23;23.40;;;;;;;4.43;100.00;100469.09;5011390;28;20189;-73
2021/01/02 03:27:45;;;;;;;33.37;23.50;;;;;;;4.68;100.00;100472.28;4997815;28;20187;-73
2021/01/02 03:30:12;;;;;;;33.33;24.20;;;;;;;4.57;100.00;100468.56;5014281;28;20300;-73
2021/01/02 03:32:37;;;;;;;34.80;23.73;;;;;;;4.61;100.00;100471.59;4998011;28;20184;-73
2021/01/02 03:35:07;;;;;;;36.53;24.43;;;;;;;4.38;100.00;100471.66;5013571;28;20611;-73
2021/01/02 03:37:33;;;;;;;35.60;24.37;;;;;;;4.45;100.00;100466.16;5014258;28;20251;-73
2021/01/02 03:39:58;;;;;;;34.47;23.90;;;;;;;4.43;100.00;100469.09;4997564;28;20204;-74
2021/01/02 03:42:24;;;;;;;34.50;24.50;;;;;;;4.35;100.00;100468.63;5046328;28;20286;-73
2021/01/02 03:44:49;;;;;;;33.90;23.43;;;;;;;4.46;100.00;100467.78;4997077;28;20196;-74
2021/01/02 03:47:17;;;;;;;34.53;23.43;;;;;;;4.47;100.00;100464.88;4997137;28;20227;-74
2021/01/02 03:49:45;;;;;;;37.33;24.77;;;;;;;4.34;100.00;100465.13;4998215;28;20180;-74
2021/01/02 03:52:11;;;;;;;37.13;25.47;;;;;;;4.26;100.00;100465.47;4996509;28;20219;-73
2021/01/02 03:54:41;;;;;;;36.10;24.93;;;;;;;4.41;100.00;100468.50;5001911;28;20257;-73
2021/01/02 03:57:07;;;;;;;37.73;26.27;;;;;;;4.21;100.00;100470.78;5028283;28;20238;-74
2021/01/02 03:59:32;;;;;;;37.30;26.43;;;;;;;4.28;100.00;100471.44;4997533;28;20768;-74
2021/01/02 04:02:01;;;;;;;39.47;26.20;;;;;;;4.16;100.00;100469.00;5012734;28;20220;-73
2021/01/02 04:04:29;;;;;;;41.70;26.00;;;;;;;4.24;100.00;100462.22;4997333;28;20188;-74
2021/01/02 04:07:00;;;;;;;38.47;26.57;;;;;;;4.27;100.00;100469.81;5012905;28;20306;-74
2021/01/02 04:09:31;;;;;;;39.07;25.33;;;;;;;4.21;100.00;100454.66;4998675;28;20234;-74
2021/01/02 04:11:56;;;;;;;37.80;26.63;;;;;;;4.13;100.00;100456.06;5013003;28;20710;-74
2021/01/02 04:14:22;;;;;;;43.27;28.10;;;;;;;3.99;100.00;100460.88;5013094;28;20285;-75
2021/01/02 04:16:50;;;;;;;44.63;26.80;;;;;;;3.94;100.00;100462.63;4997300;28;20316;-74
2021/01/02 04:19:18;;;;;;;40.50;26.17;;;;;;;3.98;100.00;100463.78;5029841;28;20230;-74
2021/01/02 04:21:49;;;;;;;40.13;26.67;;;;;;;3.91;100.00;100468.47;4997112;28;20798;-73
2021/01/02 04:24:17;;;;;;;40.40;27.20;;;;;;;3.92;100.00;100464.72;5021058;28;20287;-75
2021/01/02 04:26:43;;;;;;;38.40;26.43;;;;;;;3.82;100.00;100465.28;5026189;28;20227;-74
2021/01/02 04:29:14;;;;;;;40.97;25.30;;;;;;;4.02;100.00;100470.31;5030183;28;20191;-72
2021/01/02 04:31:42;;;;;;;40.67;25.57;;;;;;;3.97;100.00;100476.38;4996537;28;20599;-74
2021/01/02 04:34:08;;;;;;;44.23;28.33;;;;;;;3.91;100.00;100474.63;4996953;28;20242;-75
2021/01/02 04:36:36;;;;;;;40.53;26.70;;;;;;;4.11;100.00;100479.66;4995936;28;20224;-72
2021/01/02 04:39:05;;;;;;;41.03;27.00;;;;;;;4.08;100.00;100474.75;5029988;28;20180;-72
2021/01/02 04:41:32;;;;;;;45.53;27.07;;;;;;;4.03;100.00;100475.47;5028840;28;20319;-72
2021/01/02 04:43:58;;;;;;;40.73;26.90;;;;;;;4.05;100.00;100480.59;5013426;28;20226;-74
2021/01/02 04:46:26;;;;;;;41.80;27.30;;;;;;;4.00;100.00;100475.13;5028206;28;20258;-71
2021/01/02 04:48:52;;;;;;;38.47;26.07;;;;;;;4.05;100.00;100477.91;5013568;28;20181;-72
2021/01/02 04:51:18;;;;;;;40.60;25.77;;;;;;;3.92;100.00;100470.09;5012145;28;20765;-72
2021/01/02 04:53:44;;;;;;;42.13;27.07;;;;;;;3.96;100.00;100473.94;5007404;28;20185;-72
2021/01/02 04:56:12;;;;;;;40.03;26.97;;;;;;;3.91;100.00;100485.38;4987844;28;20709;-72
2021/01/02 04:58:42;;;;;;;40.07;25.90;;;;;;;3.91;100.00;100481.88;4996782;28;20271;-72
2021/01/02 05:01:10;;;;;;;40.60;27.47;;;;;;;4.00;100.00;100472.44;5029168;28;20231;-72
2021/01/02 05:03:39;;;;;;;41.47;27.57;;;;;;;4.05;100.00;100486.78;5013102;28;20223;-72
2021/01/02 05:06:06;;;;;;;42.10;27.80;;;;;;;3.83;100.00;100487.63;5028920;28;20311;-72
2021/01/02 05:08:32;;;;;;;38.23;25.53;;;;;;;3.92;100.00;100484.34;5023086;28;20653;-73
2021/01/02 05:11:01;;;;;;;44.67;27.40;;;;;;;3.92;100.00;100486.22;5008730;28;20283;-72
2021/01/02 05:13:31;;;;;;;43.70;27.00;;;;;;;4.07;100.00;100483.88;5009973;28;20189;-72
2021/01/02 05:16:16;;;;;;;43.33;27.37;;;;;;;3.90;100.00;100486.44;5008244;28;20648;-73
2021/01/02 05:19:00;;;;;;;42.57;27.70;;;;;;;4.04;100.00;100478.97;5010449;28;20184;-72
2021/01/02 05:21:26;;;;;;;43.33;27.83;;;;;;;3.89;100.00;100484.81;5012659;28;20606;-72
2021/01/02 05:24:13;;;;;;;45.23;28.17;;;;;;;4.02;100.00;100491.81;4996624;28;20173;-72
2021/01/02 05:26:44;;;;;;;43.43;27.43;;;;;;;3.96;100.00;100492.75;5028723;28;20271;-73
2021/01/02 05:29:13;;;;;;;41.57;27.10;;;;;;;4.00;100.00;100499.28;5013292;28;20280;-72
2021/01/02 05:31:42;;;;;;;44.90;27.70;;;;;;;3.94;100.00;100494.84;5012335;28;20229;-73
2021/01/02 05:34:07;;;;;;;41.90;27.07;;;;;;;3.85;100.00;100496.25;4997801;28;20181;-73
2021/01/02 05:36:33;;;;;;;39.80;26.20;;;;;;;3.79;100.00;100491.81;4960033;28;20233;-72
2021/01/02 05:38:59;;;;;;;43.20;25.70;;;;;;;3.80;100.00;100492.63;4977336;28;20182;-73
2021/01/02 05:41:26;;;;;;;39.07;25.43;;;;;;;3.79;100.00;100490.97;4980017;28;20260;-73
2021/01/02 05:43:51;;;;;;;43.60;26.83;;;;;;;3.76;100.00;100500.31;5012844;28;20212;-73
2021/01/02 05:46:20;;;;;;;43.33;26.63;;;;;;;3.83;100.00;100498.34;5012198;28;20232;-72
2021/01/02 05:48:46;;;;;;;42.93;25.43;;;;;;;3.81;100.00;100502.31;5008115;28;20281;-72
2021/01/02 05:51:17;;;;;;;45.77;30.13;;;;;;;3.79;100.00;100507.94;4995718;28;20223;-72
2021/01/02 05:53:42;;;;;;;48.30;28.10;;;;;;;4.01;100.00;100519.72;4996650;28;20307;-73
2021/01/02 05:56:12;;;;;;;47.50;29.00;;;;;;;3.89;100.00;100516.22;4995162;28;20229;-73
2021/01/02 05:58:38;;;;;;;48.43;29.23;;;;;;;4.05;100.00;100512.84;4981021;28;20239;-72
2021/01/02 06:01:17;;;;;;;48.67;28.40;;;;;;;3.93;100.00;100518.19;4987036;28;20255;-72
2021/01/02 06:03:52;;;;;;;47.63;28.80;;;;;;;4.10;100.00;100515.63;5032525;28;20184;-73
2021/01/02 06:06:20;;;;;;;44.00;29.17;;;;;;;4.05;100.00;100512.84;5015106;28;20243;-72
2021/01/02 06:08:47;;;;;;;50.80;30.10;;;;;;;4.05;100.00;100523.59;4999348;28;20181;-72
2021/01/02 06:11:14;;;;;;;46.70;29.03;;;;;;;3.93;100.00;100530.81;4998520;28;20318;-73
2021/01/02 06:13:47;;;;;;;46.00;28.73;;;;;;;4.02;100.00;100524.06;5016077;28;20246;-72
2021/01/02 06:16:17;;;;;;;48.27;29.73;;;;;;;4.04;100.00;100527.31;4997960;28;20236;-72
2021/01/02 06:18:43;;;;;;;46.33;28.67;;;;;;;4.12;100.00;100529.66;5000130;28;20831;-72
2021/01/02 06:21:11;;;;;;;47.87;29.30;;;;;;;4.25;100.00;100525.69;5015223;28;20266;-72
2021/01/02 06:23:38;;;;;;;47.50;29.50;;;;;;;4.04;100.00;100538.06;4993713;28;20642;-72
2021/01/02 06:26:05;;;;;;;46.70;29.80;;;;;;;4.20;100.00;100537.38;4989983;28;20232;-73
2021/01/02 06:28:34;;;;;;;45.77;29.43;;;;;;;4.25;100.00;100525.69;4998747;28;20279;-72
2021/01/02 06:31:05;;;;;;;48.53;29.47;;;;;;;4.20;100.00;100529.31;4998403;28;20224;-73
2021/01/02 06:33:31;;;;;;;46.70;29.13;;;;;;;4.17;100.00;100529.78;5015386;28;20218;-72
2021/01/02 06:35:57;;;;;;;47.70;29.43;;;;;;;4.51;100.00;100527.88;5014025;28;20232;-72
2021/01/02 06:38:27;;;;;;;46.60;28.53;;;;;;;4.15;100.00;100530.00;4999133;28;20231;-72
2021/01/02 06:40:58;;;;;;;44.77;29.60;;;;;;;4.27;100.00;100539.69;4998238;28;20239;-72
2021/01/02 06:43:39;;;;;;;46.27;28.90;;;;;;;4.11;100.00;100539.59;5031951;28;20194;-73
2021/01/02 06:46:08;;;;;;;49.33;29.50;;;;;;;4.19;100.00;100533.84;4997488;28;20254;-73
2021/01/02 06:48:37;;;;;;;48.80;29.63;;;;;;;4.14;100.00;100549.03;5000023;28;20268;-72
2021/01/02 06:51:04;;;;;;;49.73;30.03;;;;;;;4.16;100.00;100547.78;5013876;28;20228;-73
2021/01/02 06:53:38;;;;;;;46.80;29.00;;;;;;;4.13;100.00;100552.78;4995732;28;20279;-72
2021/01/02 06:56:04;;;;;;;47.80;28.83;;;;;;;4.06;100.00;100557.44;4993544;28;20225;-73
2021/01/02 06:58:49;;;;;;;48.03;29.73;;;;;;;4.05;100.00;100556.66;4995169;28;20596;-72
2021/01/02 07:01:17;;;;;;;47.90;28.73;;;;;;;4.23;100.00;100565.41;4989205;28;20226;-72
2021/01/02 07:03:46;;;;;;;46.07;29.37;;;;;;;4.31;100.00;100567.75;5048150;28;20184;-72
2021/01/02 07:06:25;;;;;;;49.07;29.10;;;;;;;4.39;100.00;100558.50;5014140;28;20230;-73
2021/01/02 07:09:00;;;;;;;51.70;30.60;;;;;;;4.37;100.00;100561.41;5031664;28;20259;-73
2021/01/02 07:11:35;;;;;;;49.40;29.33;;;;;;;4.37;100.00;100560.59;4998970;28;20227;-72
2021/01/02 07:14:07;;;;;;;48.83;29.47;;;;;;;4.36;100.00;100565.19;5017503;28;20272;-72
2021/01/02 07:16:54;;;;;;;48.87;29.43;;;;;;;4.24;100.00;100572.41;5030218;28;20236;-72
2021/01/02 07:19:44;;;;;;;48.57;29.60;;;;;;;4.32;100.00;100572.06;5040579;28;20179;-74
2021/01/02 07:22:19;;;;;;;55.83;30.73;;;;;;;4.38;100.00;100573.00;5029370;28;20217;-74
2021/01/02 07:25:02;;;;;;;51.30;30.60;;;;;;;4.32;100.00;100574.78;5012253;28;20284;-76
2021/01/02 07:27:41;;;;;;;48.97;29.83;;;;;;;4.26;100.00;100586.44;4994043;28;20291;-73
2021/01/02 07:30:07;;;;;;;48.60;29.40;;;;;;;4.25;100.00;100590.19;4977640;28;20201;-73
2021/01/02 07:32:35;;;;;;;53.30;30.27;;;;;;;4.36;100.00;100586.69;4992575;28;20197;-74
2021/01/02 07:35:05;;;;;;;51.23;30.43;;;;;;;4.46;100.00;100583.41;4974781;28;20260;-73
2021/01/02 07:37:34;;;;;;;51.30;30.10;;;;;;;4.35;100.00;100589.59;4975492;28;20688;-74
2021/01/02 07:40:10;;;;;;;51.77;30.30;;;;;;;4.35;100.00;100597.66;4975339;28;20255;-73
2021/01/02 07:42:37;;;;;;;50.77;30.77;;;;;;;4.14;100.00;100597.41;5006447;28;20224;-74
2021/01/02 07:45:12;;;;;;;50.73;30.07;;;;;;;4.37;100.00;100599.06;4975150;28;20651;-73
2021/01/02 07:47:53;;;;;;;50.60;30.87;;;;;;;4.20;100.00;100607.25;4991697;28;20227;-73
2021/01/02 07:50:24;;;;;;;52.17;29.60;;;;;;;4.31;100.00;100605.38;4974202;28;20262;-75
2021/01/02 07:52:57;;;;;;;48.13;29.50;;;;;;;4.20;100.00;100607.25;4961001;28;20196;-72
2021/01/02 07:55:31;;;;;;;56.17;31.20;;;;;;;4.25;100.00;100622.44;4993194;28;20181;-73
2021/01/02 07:58:02;;;;;;;48.37;30.87;;;;;;;4.33;100.00;100614.03;4963906;28;20185;-73
2021/01/02 08:00:28;;;;;;;47.97;30.67;;;;;;;4.24;100.00;100626.16;5026400;28;20221;-73
2021/01/02 08:03:03;;;;;;;51.23;31.47;;;;;;;4.44;100.00;100626.66;5010491;28;20196;-73
2021/01/02 08:05:29;;;;;;;51.33;31.07;;;;;;;4.44;100.00;100626.66;4992964;28;20610;-73
2021/01/02 08:07:58;;;;;;;54.50;31.80;;;;;;;4.42;100.00;100620.69;5010712;28;20177;-72
2021/01/02 08:10:24;;;;;;;53.67;32.10;;;;;;;4.53;100.00;100633.31;5009206;28;20690;-72
2021/01/02 08:12:56;;;;;;;51.37;31.23;;;;;;;4.42;100.00;100634.13;4994703;28;20184;-73
2021/01/02 08:15:27;;;;;;;51.30;31.37;;;;;;;4.43;100.00;100630.41;5009519;28;20672;-73
2021/01/02 08:17:53;;;;;;;50.93;30.23;;;;;;;4.63;100.00;100628.16;5026839;28;20239;-73
2021/01/02 08:20:20;;;;;;;54.50;31.47;;;;;;;4.45;100.00;100631.00;5009348;28;20197;-73
2021/01/02 08:22:46;;;;;;;51.77;31.30;;;;;;;4.66;100.00;100639.25;5010068;28;20192;-73
2021/01/02 08:25:18;;;;;;;51.23;30.73;;;;;;;4.73;100.00;100631.09;4993151;28;20184;-74
2021/01/02 08:27:44;;;;;;;47.07;29.63;;;;;;;4.80;100.00;100637.16;5013975;28;20810;-73
2021/01/02 08:30:11;;;;;;;50.90;30.97;;;;;;;4.65;100.00;100634.13;4996753;28;20227;-72
2021/01/02 08:32:50;;;;;;;47.63;30.70;;;;;;;4.62;100.00;100645.38;4997794;28;20646;-72
2021/01/02 08:35:16;;;;;;;52.20;30.67;;;;;;;4.71;100.00;100643.97;4996043;28;20195;-73
2021/01/02 08:37:43;;;;;;;48.03;30.77;;;;;;;4.69;100.00;100646.88;5046179;28;20188;-73
2021/01/02 08:40:16;;;;;;;51.63;30.93;;;;;;;4.63;100.00;100647.81;5013136;28;20234;-73
2021/01/02 08:42:46;;;;;;;52.20;31.80;;;;;;;4.59;100.00;100656.56;5013839;28;20176;-72
2021/01/02 08:45:29;;;;;;;53.07;31.83;;;;;;;4.73;100.00;100655.31;5012961;28;20184;-72
2021/01/02 08:48:08;;;;;;;49.20;29.70;;;;;;;4.59;100.00;100660.06;4997112;28;20204;-73
2021/01/02 08:50:40;;;;;;;48.47;31.00;;;;;;;4.54;100.00;100659.13;5013053;28;20318;-73
2021/01/02 08:53:07;;;;;;;50.27;30.43;;;;;;;4.66;100.00;100665.34;5008605;28;20189;-72
2021/01/02 08:55:32;;;;;;;51.10;30.43;;;;;;;4.64;100.00;100670.16;4999234;28;20237;-73
2021/01/02 08:57:59;;;;;;;54.93;31.10;;;;;;;4.66;100.00;100666.16;4995010;28;20188;-73
2021/01/02 09:00:28;;;;;;;51.37;31.20;;;;;;;4.60;100.00;100672.47;4996323;28;20216;-73
2021/01/02 09:02:54;;;;;;;53.53;30.67;;;;;;;4.76;100.00;100673.66;5014465;28;20196;-73
2021/01/02 09:05:30;;;;;;;52.10;29.83;;;;;;;4.80;100.00;100674.81;5029041;28;20639;-72
2021/01/02 09:07:59;;;;;;;50.43;29.13;;;;;;;4.57;100.00;100676.69;5014269;28;20268;-73
2021/01/02 09:10:46;;;;;;;50.10;30.60;;;;;;;4.60;100.00;100682.44;5012609;28;20229;-73
2021/01/02 09:13:11;;;;;;;51.30;29.60;;;;;;;4.58;100.00;100673.78;5012803;28;20567;-72
2021/01/02 09:15:42;;;;;;;55.70;31.90;;;;;;;4.61;100.00;100676.81;5029218;28;20303;-72
2021/01/02 09:18:10;;;;;;;52.93;30.27;;;;;;;4.81;100.00;100676.47;5014516;28;20235;-73
2021/01/02 09:20:38;;;;;;;50.97;30.27;;;;;;;4.72;100.00;100689.44;5006209;28;20223;-72
2021/01/02 09:23:09;;;;;;;51.20;30.57;;;;;;;4.65;100.00;100693.28;5011511;28;20580;-73
2021/01/02 09:25:36;;;;;;;48.57;29.97;;;;;;;4.72;100.00;100685.94;5009116;28;20733;-73
2021/01/02 09:28:15;;;;;;;52.23;30.63;;;;;;;4.49;100.00;100688.63;5014033;28;20744;-73
2021/01/02 09:30:42;;;;;;;53.27;30.77;;;;;;;4.64;100.00;100691.66;4991968;28;20233;-74
2021/01/02 09:33:08;;;;;;;49.57;29.57;;;;;;;4.62;100.00;100693.78;5011791;28;20220;-73
2021/01/02 09:35:35;;;;;;;50.67;29.47;;;;;;;4.56;100.00;100700.09;5011738;28;20375;-73
2021/01/02 09:38:04;;;;;;;49.43;30.37;;;;;;;4.79;100.00;100697.41;5012207;28;20208;-73
2021/01/02 09:40:30;;;;;;;51.07;29.97;;;;;;;4.70;100.00;100702.28;5011852;28;20733;-74
2021/01/02 09:42:58;;;;;;;45.87;29.30;;;;;;;4.94;100.00;100703.13;5000549;28;20331;-73
2021/01/02 09:45:24;;;;;;;51.37;30.63;;;;;;;4.82;100.00;100707.69;5013236;28;20185;-73
2021/01/02 09:47:49;;;;;;;48.63;29.87;;;;;;;4.90;100.00;100707.34;5012431;28;20232;-73
2021/01/02 09:50:17;;;;;;;49.10;29.30;;;;;;;5.14;100.00;100702.50;4996339;28;20205;-73
2021/01/02 09:52:43;;;;;;;47.70;28.93;;;;;;;5.09;100.00;100702.41;5013631;28;20189;-73
2021/01/02 09:55:12;;;;;;;52.47;29.27;;;;;;;4.86;100.00;100700.78;4996257;28;20208;-73
2021/01/02 09:57:38;;;;;;;46.77;28.83;;;;;;;4.77;100.00;100712.94;5005438;28;20275;-73
2021/01/02 10:00:05;;;;;;;48.97;29.27;;;;;;;4.84;100.00;100708.28;4993870;28;20299;-73
2021/01/02 10:02:37;;;;;;;45.67;26.67;;;;;;;4.84;100.00;100709.09;4983989;28;20212;-73
2021/01/02 10:05:04;;;;;;;46.27;27.67;;;;;;;4.91;100.00;100708.97;5005328;28;20245;-74
2021/01/02 10:07:29;;;;;;;50.77;30.27;;;;;;;5.01;100.00;100710.81;5005201;28;20286;-74
2021/01/02 10:09:55;;;;;;;50.60;30.40;;;;;;;5.07;100.00;100709.06;5026015;28;20691;-73
2021/01/02 10:12:21;;;;;;;51.60;31.20;;;;;;;5.19;100.00;100708.00;4989295;28;20455;-73
2021/01/02 10:14:48;;;;;;;46.67;28.73;;;;;;;5.35;100.00;100701.91;5004096;28;20189;-74
2021/01/02 10:17:15;;;;;;;47.33;29.13;;;;;;;5.50;100.00;100713.00;4991905;28;20224;-74
2021/01/02 10:19:44;;;;;;;43.17;27.33;;;;;;;5.47;100.00;100705.38;5010898;28;20189;-74
2021/01/02 10:22:10;;;;;;;43.60;28.60;;;;;;;5.40;100.00;100710.91;4985407;28;20216;-75
2021/01/02 10:24:38;;;;;;;46.70;28.10;;;;;;;5.38;100.00;100712.19;4992099;28;20273;-74
2021/01/02 10:27:04;;;;;;;39.00;26.97;;;;;;;5.31;100.00;100705.28;4985953;28;20221;-74
2021/01/02 10:29:36;;;;;;;43.63;28.37;;;;;;;5.35;100.00;100699.22;5012346;28;20718;-75
2021/01/02 10:32:04;;;;;;;43.50;26.77;;;;;;;5.47;100.00;100700.00;4990168;28;20663;-74
2021/01/02 10:34:30;;;;;;;44.27;28.30;;;;;;;5.33;100.00;100709.41;4998538;28;20188;-74
2021/01/02 10:36:56;;;;;;;51.13;32.70;;;;;;;5.59;100.00;100706.19;4980864;28;20792;-74
2021/01/02 10:39:24;;;;;;;46.83;30.10;;;;;;;5.28;100.00;100706.59;5011454;28;20669;-73
2021/01/02 10:41:50;;;;;;;49.53;31.87;;;;;;;5.34;100.00;100706.44;4970520;28;20290;-75
2021/01/02 10:44:19;;;;;;;47.27;29.83;;;;;;;5.34;100.00;100705.63;4979316;28;20654;-74
2021/01/02 10:46:51;;;;;;;46.40;30.33;;;;;;;5.44;100.00;100705.88;4991894;28;20697;-73
2021/01/02 10:49:22;;;;;;;47.97;28.43;;;;;;;5.52;100.00;100713.56;4999976;28;20191;-74
2021/01/02 10:51:48;;;;;;;45.33;28.07;;;;;;;5.38;100.00;100710.34;4986877;28;20221;-74
2021/01/02 10:54:14;;;;;;;45.63;28.63;;;;;;;5.49;100.00;100705.97;4987280;28;20546;-75
2021/01/02 10:56:58;;;;;;;43.83;27.63;;;;;;;5.35;100.00;100708.09;5008865;28;20686;-74
2021/01/02 10:59:26;;;;;;;45.97;29.13;;;;;;;5.39;100.00;100703.06;4992778;28;20677;-74
2021/01/02 11:01:54;;;;;;;44.63;27.83;;;;;;;5.53;100.00;100699.03;5019253;28;20221;-74
2021/01/02 11:04:21;;;;;;;43.73;28.77;;;;;;;5.46;100.00;100698.38;4991914;28;20651;-74
2021/01/02 11:06:50;;;;;;;44.70;27.77;;;;;;;5.65;100.00;100697.13;4962459;28;20217;-74
2021/01/02 11:09:16;;;;;;;44.10;28.37;;;;;;;5.57;100.00;100695.63;4994957;28;20181;-74
2021/01/02 11:11:41;;;;;;;43.33;27.87;;;;;;;5.78;100.00;100697.69;4978035;28;20233;-74
2021/01/02 11:14:07;;;;;;;42.40;28.53;;;;;;;5.87;100.00;100691.69;4978791;28;20189;-75
2021/01/02 11:16:37;;;;;;;44.57;28.30;;;;;;;5.68;100.00;100692.09;5007021;28;20225;-74
2021/01/02 11:19:17;;;;;;;45.73;30.43;;;;;;;5.69;100.00;100696.41;4996859;28;20220;-74
2021/01/02 11:21:47;;;;;;;41.97;28.10;;;;;;;5.86;100.00;100689.22;5010195;28;20220;-74
2021/01/02 11:24:16;;;;;;;43.67;28.27;;;;;;;5.85;99.87;100688.41;4982035;28;20188;-75
2021/01/02 11:26:47;;;;;;;42.10;27.83;;;;;;;5.95;99.75;100683.22;4983593;28;20658;-76